Terminal Aerodrome Forecast
Issued by NWS Sioux Falls, SD

Home | Current Version | Previous Version | Text Only | Print | Product List | Glossary On
Versions: 1 2 3 4 5 6 7 8 9 10 11 12 13 14
000
FTUS43 KFSD 051742
TAFHON
TAF
KHON 051742Z 0518/0618 14014G20KT P6SM OVC070
      TEMPO 0522/0601 -SHRA
     FM060200 12011KT P6SM OVC040
     FM060900 13013KT P6SM -SHRA OVC025=

USA.gov is the U.S. government's official web portal to all federal, state and local government web resources and services.